createdAt,value
2022-08-26T00:02:12.532Z,101287.09
2022-08-26T00:04:40.671Z,101279.38
2022-08-26T00:07:08.276Z,101289.06
2022-08-26T00:09:39.152Z,101287.09
2022-08-26T00:12:09.552Z,101288.50
2022-08-26T00:14:40.087Z,101294.66
2022-08-26T00:17:08.590Z,101293.38
2022-08-26T00:19:36.073Z,101296.34
2022-08-26T00:22:03.904Z,101296.19
2022-08-26T00:24:31.253Z,101289.63
2022-08-26T00:26:58.735Z,101310.38
2022-08-26T00:29:26.086Z,101290.72
2022-08-26T00:31:53.473Z,101302.94
2022-08-26T00:34:20.900Z,101295.63
2022-08-26T00:36:49.236Z,101301.81
2022-08-26T00:39:20.814Z,101295.50
2022-08-26T00:41:48.663Z,101302.38
2022-08-26T00:44:17.645Z,101301.41
2022-08-26T00:46:59.411Z,101295.94
2022-08-26T00:49:47.417Z,101297.59
2022-08-26T00:52:21.693Z,101301.69
2022-08-26T00:55:19.741Z,101293.56
2022-08-26T00:57:51.202Z,101302.66
2022-08-26T01:00:26.621Z,101299.59
2022-08-26T01:02:56.067Z,101301.78
2022-08-26T01:05:24.552Z,101307.13
2022-08-26T01:07:52.157Z,101300.69
2022-08-26T01:10:31.265Z,101310.06
2022-08-26T01:13:07.116Z,101304.03
2022-08-26T01:15:51.114Z,101302.34
2022-08-26T01:18:19.949Z,101306.16
2022-08-26T01:21:10.134Z,101305.16
2022-08-26T01:23:51.694Z,101298.66
2022-08-26T01:26:40.479Z,101301.03
2022-08-26T01:29:14.894Z,101301.03
2022-08-26T01:31:57.404Z,101308.19
2022-08-26T01:34:37.481Z,101310.97
2022-08-26T01:37:15.921Z,101297.53
2022-08-26T01:39:49.899Z,101291.22
2022-08-26T01:42:19.889Z,101301.88
2022-08-26T01:44:59.299Z,101302.84
2022-08-26T01:47:30.880Z,101302.84
2022-08-26T01:50:06.314Z,101296.97
2022-08-26T01:52:41.438Z,101302.16
2022-08-26T01:55:14.991Z,101300.31
2022-08-26T01:57:59.900Z,101301.56
2022-08-26T02:00:27.459Z,101296.50
2022-08-26T02:03:17.204Z,101300.16
2022-08-26T02:06:03.852Z,101297.78
2022-08-26T02:08:47.893Z,101302.97
2022-08-26T02:11:16.709Z,101304.94
2022-08-26T02:13:55.617Z,101303.53
2022-08-26T02:16:28.614Z,101307.16
2022-08-26T02:19:00.211Z,101300.03
2022-08-26T02:21:29.127Z,101297.66
2022-08-26T02:24:13.722Z,101297.66
2022-08-26T02:26:43.186Z,101296.78
2022-08-26T02:29:41.354Z,101294.53
2022-08-26T02:32:11.029Z,101299.03
2022-08-26T02:34:38.837Z,101302.78
2022-08-26T02:37:11.223Z,101298.59
2022-08-26T02:39:42.715Z,101305.72
2022-08-26T02:42:10.721Z,101314.69
2022-08-26T02:44:38.349Z,101321.81
2022-08-26T02:47:07.532Z,101317.22
2022-08-26T02:49:36.755Z,101320.00
2022-08-26T02:52:07.219Z,101313.00
2022-08-26T02:54:35.120Z,101317.75
2022-08-26T02:57:04.011Z,101314.38
2022-08-26T02:59:35.945Z,101323.34
2022-08-26T03:02:03.846Z,101323.34
2022-08-26T03:04:33.488Z,101326.00
2022-08-26T03:07:01.072Z,101319.81
2022-08-26T03:09:28.703Z,101320.81
2022-08-26T03:11:56.139Z,101315.91
2022-08-26T03:14:24.184Z,101320.34
2022-08-26T03:16:54.001Z,101319.53
2022-08-26T03:19:24.782Z,101313.38
2022-08-26T03:21:57.940Z,101313.38
2022-08-26T03:24:26.937Z,101310.97
2022-08-26T03:26:54.211Z,101312.06
2022-08-26T03:29:41.590Z,101313.19
2022-08-26T03:32:09.950Z,101318.75
2022-08-26T03:34:38.012Z,101319.88
2022-08-26T03:37:06.340Z,101317.50
2022-08-26T03:39:33.789Z,101319.16
2022-08-26T03:42:01.576Z,101320.84
2022-08-26T03:44:29.098Z,101327.88
2022-08-26T03:46:56.600Z,101326.16
2022-08-26T03:49:24.145Z,101329.94
2022-08-26T03:51:51.555Z,101328.25
2022-08-26T03:54:19.170Z,101327.53
2022-08-26T03:56:46.729Z,101333.13
2022-08-26T03:59:14.085Z,101325.41
2022-08-26T04:01:41.917Z,101328.06
2022-08-26T04:04:09.441Z,101329.88
2022-08-26T04:06:43.360Z,101329.88
2022-08-26T04:09:20.162Z,101320.94
2022-08-26T04:11:50.343Z,101324.31
2022-08-26T04:14:26.400Z,101323.34
2022-08-26T04:16:56.383Z,101321.66
2022-08-26T04:19:25.914Z,101320.69
2022-08-26T04:21:54.716Z,101317.16
2022-08-26T04:24:27.176Z,101317.16
2022-08-26T04:26:56.612Z,101318.97
2022-08-26T04:29:26.819Z,101315.50
2022-08-26T04:31:58.840Z,101317.16
2022-08-26T04:34:29.117Z,101318.72
2022-08-26T04:36:58.432Z,101313.28
2022-08-26T04:39:27.684Z,101313.28
2022-08-26T04:41:56.014Z,101313.97
2022-08-26T04:44:29.275Z,101319.88
2022-08-26T04:46:58.518Z,101336.56
2022-08-26T04:49:29.430Z,101330.25
2022-08-26T04:52:05.213Z,101336.00
2022-08-26T04:54:32.771Z,101342.16
2022-08-26T04:57:03.472Z,101335.19
2022-08-26T04:59:30.765Z,101335.19
2022-08-26T05:01:59.678Z,101337.84
2022-08-26T05:04:28.410Z,101338.94
2022-08-26T05:07:02.805Z,101338.25
2022-08-26T05:09:30.638Z,101338.94
2022-08-26T05:12:00.757Z,101344.97
2022-08-26T05:14:31.186Z,101344.00
2022-08-26T05:16:58.549Z,101346.66
2022-08-26T05:19:27.984Z,101347.50
2022-08-26T05:21:55.527Z,101341.47
2022-08-26T05:24:23.428Z,101340.78
2022-08-26T05:26:50.744Z,101346.09
2022-08-26T05:29:18.829Z,101353.69
2022-08-26T05:31:55.953Z,101343.47
2022-08-26T05:34:30.066Z,101339.97
2022-08-26T05:36:58.309Z,101344.56
2022-08-26T05:39:25.878Z,101344.56
2022-08-26T05:41:53.348Z,101350.03
2022-08-26T05:44:23.844Z,101360.09
2022-08-26T05:46:51.867Z,101360.22
2022-08-26T05:49:20.311Z,101358.53
2022-08-26T05:51:50.011Z,101360.09
2022-08-26T05:54:22.371Z,101354.63
2022-08-26T05:56:51.933Z,101358.88
2022-08-26T05:59:23.916Z,101364.06
2022-08-26T06:01:54.974Z,101355.81
2022-08-26T06:04:29.134Z,101364.50
2022-08-26T06:06:58.393Z,101370.38
2022-08-26T06:09:28.524Z,101374.59
2022-08-26T06:11:58.830Z,101373.91
2022-08-26T06:14:26.192Z,101383.53
2022-08-26T06:16:54.391Z,101389.59
2022-08-26T06:19:22.527Z,101382.31
2022-08-26T06:21:54.657Z,101388.34
2022-08-26T06:24:41.048Z,101396.19
2022-08-26T06:27:13.450Z,101397.88
2022-08-26T06:29:41.853Z,101389.19
2022-08-26T06:32:09.393Z,101397.88
2022-08-26T06:34:37.194Z,101395.66
2022-08-26T06:37:06.384Z,101395.66
2022-08-26T06:39:35.310Z,101395.41
2022-08-26T06:42:08.109Z,101404.38
2022-08-26T06:44:35.516Z,101406.78
2022-08-26T06:47:04.907Z,101405.38
2022-08-26T06:49:32.213Z,101411.56
2022-08-26T06:51:59.524Z,101410.31
2022-08-26T06:54:31.704Z,101411.59
2022-08-26T06:57:09.924Z,101411.88
2022-08-26T06:59:37.441Z,101410.56
2022-08-26T07:02:08.199Z,101418.13
2022-08-26T07:04:35.763Z,101417.72
2022-08-26T07:07:04.519Z,101420.69
2022-08-26T07:09:38.162Z,101412.41
2022-08-26T07:12:12.711Z,101414.13
2022-08-26T07:14:47.289Z,101413.28
2022-08-26T07:17:25.017Z,101414.13
2022-08-26T07:19:53.655Z,101416.34
2022-08-26T07:22:23.757Z,101418.03
2022-08-26T07:24:57.557Z,101415.94
2022-08-26T07:27:25.292Z,101418.63
2022-08-26T07:29:57.518Z,101425.19
2022-08-26T07:32:37.532Z,101430.78
2022-08-26T07:35:06.469Z,101438.50
2022-08-26T07:37:35.490Z,101435.28
2022-08-26T07:40:07.653Z,101428.94
2022-08-26T07:42:36.796Z,101428.94
2022-08-26T07:45:05.920Z,101435.69
2022-08-26T07:47:33.754Z,101434.47
2022-08-26T07:50:01.273Z,101435.84
2022-08-26T07:52:30.790Z,101439.09
2022-08-26T07:55:02.539Z,101440.38
2022-08-26T07:57:30.828Z,101442.63
2022-08-26T08:00:02.386Z,101432.97
2022-08-26T08:02:40.007Z,101442.22
2022-08-26T08:05:09.072Z,101437.47
2022-08-26T08:07:38.594Z,101436.34
2022-08-26T08:10:25.967Z,101445.88
2022-08-26T08:12:56.267Z,101442.81
2022-08-26T08:15:28.816Z,101440.41
2022-08-26T08:18:00.994Z,101450.41
2022-08-26T08:20:33.298Z,101446.22
2022-08-26T08:23:04.273Z,101451.97
2022-08-26T08:25:34.526Z,101456.06
2022-08-26T08:28:02.067Z,101451.41
2022-08-26T08:30:29.892Z,101448.91
2022-08-26T08:32:57.577Z,101461.81
2022-08-26T08:35:26.538Z,101461.25
2022-08-26T08:37:56.539Z,101469.13
2022-08-26T08:40:27.519Z,101467.41
2022-08-26T08:43:29.285Z,101467.25
2022-08-26T08:46:12.519Z,101469.09
2022-08-26T08:48:48.174Z,101461.94
2022-08-26T08:52:00.753Z,101459.41
2022-08-26T08:54:29.150Z,101456.31
2022-08-26T08:57:17.072Z,101461.13
2022-08-26T09:00:14.072Z,101456.47
2022-08-26T09:03:09.734Z,101461.53
2022-08-26T09:05:48.515Z,101460.97
2022-08-26T09:08:32.369Z,101460.97
2022-08-26T09:11:03.419Z,101470.09
2022-08-26T09:13:31.755Z,101466.84
2022-08-26T09:16:13.837Z,101466.56
2022-08-26T09:19:15.247Z,101460.97
2022-08-26T09:21:54.437Z,101472.19
2022-08-26T09:24:28.591Z,101466.31
2022-08-26T09:26:59.158Z,101467.56
2022-08-26T09:29:32.323Z,101472.19
2022-08-26T09:32:24.404Z,101474.72
2022-08-26T09:35:00.587Z,101470.94
2022-08-26T09:40:34.690Z,101478.09
2022-08-26T09:43:22.144Z,101477.09
2022-08-26T09:46:09.560Z,101482.81
2022-08-26T09:48:41.557Z,101470.63
2022-08-26T09:51:38.841Z,101476.50
2022-08-26T09:54:08.160Z,101475.34
2022-08-26T09:56:39.311Z,101483.88
2022-08-26T09:59:12.094Z,101481.22
2022-08-26T10:01:43.814Z,101476.56
2022-08-26T10:04:21.441Z,101482.84
2022-08-26T10:07:08.181Z,101479.75
2022-08-26T10:09:43.406Z,101484.22
2022-08-26T10:12:21.784Z,101479.59
2022-08-26T10:15:00.061Z,101478.03
2022-08-26T10:18:12.073Z,101477.75
2022-08-26T10:21:02.653Z,101479.56
2022-08-26T10:23:45.135Z,101480.41
2022-08-26T10:26:46.059Z,101479.41
2022-08-26T10:29:43.451Z,101485.63
2022-08-26T10:32:45.814Z,101490.97
2022-08-26T10:35:18.050Z,101482.13
2022-08-26T10:38:10.807Z,101488.16
2022-08-26T10:41:11.012Z,101489.59
2022-08-26T10:43:56.346Z,101489.31
2022-08-26T10:46:37.287Z,101487.63
2022-08-26T10:49:17.755Z,101474.31
2022-08-26T10:52:17.897Z,101472.94
2022-08-26T10:55:34.906Z,101477.69
2022-08-26T10:58:31.946Z,101478.97
2022-08-26T11:01:33.744Z,101480.41
2022-08-26T11:04:38.713Z,101489.50
2022-08-26T11:07:56.377Z,101477.47
2022-08-26T11:10:24.367Z,101476.50
2022-08-26T11:13:05.097Z,101487.06
2022-08-26T11:15:32.431Z,101481.59
2022-08-26T11:18:11.698Z,101483.97
2022-08-26T11:20:46.042Z,101484.28
2022-08-26T11:23:23.423Z,101491.13
2022-08-26T11:25:59.772Z,101479.22
2022-08-26T11:28:44.130Z,101480.19
2022-08-26T11:31:38.730Z,101482.16
2022-08-26T11:34:12.698Z,101479.34
2022-08-26T11:36:45.909Z,101485.81
2022-08-26T11:39:56.982Z,101477.94
2022-08-26T11:43:02.987Z,101480.63
2022-08-26T11:45:43.131Z,101481.59
2022-08-26T11:48:35.460Z,101483.72
2022-08-26T11:51:20.341Z,101482.31
2022-08-26T11:53:48.374Z,101482.16
2022-08-26T11:56:38.175Z,101481.31
2022-08-26T12:02:18.129Z,101482.94
2022-08-26T12:04:51.853Z,101478.38
2022-08-26T12:07:29.066Z,101476.94
2022-08-26T12:10:02.226Z,101471.63
2022-08-26T12:12:40.677Z,101474.00
2022-08-26T12:15:22.213Z,101470.09
2022-08-26T12:17:54.559Z,101477.53
2022-08-26T12:20:48.394Z,101465.34
2022-08-26T12:23:42.079Z,101466.72
2022-08-26T12:26:31.925Z,101475.16
2022-08-26T12:29:19.936Z,101479.78
2022-08-26T12:31:48.257Z,101480.47
2022-08-26T12:34:18.446Z,101482.44
2022-08-26T12:36:55.837Z,101485.38
2022-08-26T12:39:36.257Z,101495.78
2022-08-26T12:42:12.478Z,101492.94
2022-08-26T12:45:00.749Z,101497.00
2022-08-26T12:47:44.307Z,101494.00
2022-08-26T12:50:26.604Z,101495.84
2022-08-26T12:53:04.165Z,101502.44
2022-08-26T12:55:47.605Z,101506.22
2022-08-26T12:58:35.939Z,101499.19
2022-08-26T13:01:09.287Z,101500.91
2022-08-26T13:03:43.838Z,101495.44
2022-08-26T13:06:23.182Z,101500.75
2022-08-26T13:09:00.678Z,101496.13
2022-08-26T13:11:38.982Z,101494.47
2022-08-26T13:14:24.244Z,101492.66
2022-08-26T13:16:53.169Z,101496.75
2022-08-26T13:19:29.135Z,101492.25
2022-08-26T13:22:01.041Z,101492.97
2022-08-26T13:24:41.872Z,101497.72
2022-08-26T13:27:14.127Z,101493.41
2022-08-26T13:29:42.067Z,101490.88
2022-08-26T13:32:09.988Z,101488.34
2022-08-26T13:34:39.034Z,101490.00
2022-08-26T13:37:07.306Z,101483.84
2022-08-26T13:39:35.330Z,101486.09
2022-08-26T13:42:02.632Z,101480.47
2022-08-26T13:44:30.051Z,101479.22
2022-08-26T13:46:57.772Z,101478.09
2022-08-26T13:49:25.610Z,101472.19
2022-08-26T13:51:53.075Z,101469.78
2022-08-26T13:54:20.552Z,101471.19
2022-08-26T13:56:47.917Z,101469.94
2022-08-26T13:59:15.415Z,101479.19
2022-08-26T14:01:42.779Z,101477.22
2022-08-26T14:04:10.275Z,101487.03
2022-08-26T14:06:37.636Z,101478.06
2022-08-26T14:09:05.488Z,101478.19
2022-08-26T14:11:50.691Z,101481.41
2022-08-26T14:14:20.673Z,101476.22
2022-08-26T14:16:58.849Z,101471.03
2022-08-26T14:19:30.243Z,101456.97
2022-08-26T14:22:00.813Z,101465.13
2022-08-26T14:24:29.108Z,101454.03
2022-08-26T14:26:56.559Z,101451.94
2022-08-26T14:29:25.078Z,101452.91
2022-08-26T14:31:52.830Z,101450.09
2022-08-26T14:34:20.264Z,101442.81
2022-08-26T14:36:47.626Z,101445.91
2022-08-26T14:39:15.029Z,101438.63
2022-08-26T14:41:55.206Z,101439.59
2022-08-26T14:44:31.264Z,101429.09
2022-08-26T14:47:04.235Z,101437.09
2022-08-26T14:49:31.833Z,101437.94
2022-08-26T14:52:00.025Z,101438.50
2022-08-26T14:54:29.299Z,101440.06
2022-08-26T14:57:07.117Z,101443.00
2022-08-26T14:59:50.084Z,101443.84
2022-08-26T15:02:18.170Z,101443.81
2022-08-26T15:05:01.173Z,101450.25
2022-08-26T15:07:32.603Z,101452.88
2022-08-26T15:10:00.290Z,101448.09
2022-08-26T15:12:27.863Z,101457.94
2022-08-26T15:14:55.334Z,101457.59
2022-08-26T15:17:23.487Z,101457.97
2022-08-26T15:19:52.173Z,101464.44
2022-08-26T15:22:20.052Z,101456.69
2022-08-26T15:24:47.483Z,101457.59
2022-08-26T15:27:19.794Z,101453.22
2022-08-26T15:29:47.237Z,101451.66
2022-08-26T15:32:14.671Z,101447.91
2022-08-26T15:34:42.043Z,101456.75
2022-08-26T15:37:09.739Z,101453.59
2022-08-26T15:39:37.231Z,101460.03
2022-08-26T15:42:05.353Z,101464.13
2022-08-26T15:44:34.106Z,101459.56
2022-08-26T15:47:01.543Z,101447.91
2022-08-26T15:49:29.029Z,101460.41
2022-08-26T15:51:56.441Z,101451.28
2022-08-26T15:54:24.442Z,101451.44
2022-08-26T15:56:53.074Z,101450.59
2022-08-26T15:59:22.299Z,101438.91
2022-08-26T16:04:18.706Z,101456.75
2022-08-26T16:06:50.439Z,101449.66
2022-08-26T16:09:21.338Z,101450.22
2022-08-26T16:11:49.992Z,101443.91
2022-08-26T16:14:17.501Z,101440.34
2022-08-26T16:16:45.037Z,101439.78
2022-08-26T16:19:12.766Z,101428.13
2022-08-26T16:21:41.737Z,101431.53
2022-08-26T16:24:09.542Z,101429.97
2022-08-26T16:26:41.265Z,101433.72
2022-08-26T16:29:13.826Z,101437.25
2022-08-26T16:31:42.330Z,101439.06
2022-08-26T16:34:10.545Z,101437.25
2022-08-26T16:36:40.474Z,101447.50
2022-08-26T16:39:09.789Z,101428.03
2022-08-26T16:41:37.654Z,101437.28
2022-08-26T16:44:08.267Z,101426.91
2022-08-26T16:46:36.535Z,101425.66
2022-08-26T16:49:04.616Z,101427.38
2022-08-26T16:51:38.093Z,101431.69
2022-08-26T16:54:08.877Z,101431.69
2022-08-26T16:56:37.921Z,101431.00
2022-08-26T16:59:11.552Z,101424.44
2022-08-26T17:01:39.099Z,101430.72
2022-08-26T17:04:06.770Z,101444.47
2022-08-26T17:06:34.296Z,101439.97
2022-08-26T17:09:01.773Z,101442.75
2022-08-26T17:11:29.178Z,101447.69
2022-08-26T17:13:57.429Z,101444.03
2022-08-26T17:16:27.116Z,101454.41
2022-08-26T17:18:57.517Z,101452.28
2022-08-26T17:21:26.380Z,101457.16
2022-08-26T17:23:55.194Z,101456.75
2022-08-26T17:26:22.776Z,101457.91
2022-08-26T17:28:51.255Z,101460.97
2022-08-26T17:31:20.307Z,101456.59
2022-08-26T17:33:53.298Z,101461.50
2022-08-26T17:36:27.501Z,101466.22
2022-08-26T17:38:58.321Z,101468.75
2022-08-26T17:41:26.718Z,101466.78
2022-08-26T17:43:54.638Z,101462.19
2022-08-26T17:46:22.615Z,101461.84
2022-08-26T17:48:50.110Z,101461.41
2022-08-26T17:51:19.855Z,101465.09
2022-08-26T17:53:48.587Z,101469.13
2022-08-26T17:56:24.168Z,101469.25
2022-08-26T17:58:56.501Z,101466.34
2022-08-26T18:01:27.576Z,101471.63
2022-08-26T18:04:00.247Z,101481.09
2022-08-26T18:06:30.690Z,101468.03
2022-08-26T18:09:00.802Z,101479.88
2022-08-26T18:11:32.109Z,101483.50
2022-08-26T18:14:00.589Z,101478.44
2022-08-26T18:16:32.115Z,101481.09
2022-08-26T18:19:00.394Z,101476.03
2022-08-26T18:21:28.345Z,101482.59
2022-08-26T18:23:56.516Z,101489.03
2022-08-26T18:26:31.903Z,101491.09
2022-08-26T18:29:00.610Z,101491.09
2022-08-26T18:31:29.164Z,101492.84
2022-08-26T18:33:58.337Z,101493.34
2022-08-26T18:36:33.318Z,101492.53
2022-08-26T18:39:02.527Z,101494.00
2022-08-26T18:41:33.719Z,101501.16
2022-08-26T18:44:01.367Z,101502.75
2022-08-26T18:46:29.010Z,101495.72
2022-08-26T18:48:57.816Z,101507.72
2022-08-26T18:51:33.006Z,101510.53
2022-08-26T18:54:04.725Z,101503.84
2022-08-26T18:56:35.173Z,101504.47
2022-08-26T18:59:04.852Z,101508.22
2022-08-26T19:01:34.349Z,101516.19
2022-08-26T19:04:06.118Z,101506.75
2022-08-26T19:06:36.063Z,101507.13
2022-08-26T19:09:08.911Z,101518.38
2022-08-26T19:11:42.998Z,101523.69
2022-08-26T19:14:15.566Z,101523.34
2022-08-26T19:16:48.559Z,101533.25
2022-08-26T19:19:17.199Z,101534.00
2022-08-26T19:21:45.493Z,101528.56
2022-08-26T19:24:17.591Z,101532.19
2022-08-26T19:26:51.349Z,101531.00
2022-08-26T19:29:33.490Z,101524.59
2022-08-26T19:32:03.041Z,101519.16
2022-08-26T19:34:31.109Z,101526.94
2022-08-26T19:36:59.125Z,101531.25
2022-08-26T19:39:27.745Z,101533.31
2022-08-26T19:41:55.137Z,101529.94
2022-08-26T19:44:42.986Z,101531.16
2022-08-26T19:47:12.109Z,101533.94
2022-08-26T19:49:39.667Z,101536.72
2022-08-26T19:52:09.251Z,101531.50
2022-08-26T19:54:37.551Z,101529.69
2022-08-26T19:57:06.117Z,101536.13
2022-08-26T19:59:33.725Z,101531.50
2022-08-26T20:02:01.992Z,101542.38
2022-08-26T20:04:33.112Z,101535.72
2022-08-26T20:07:03.196Z,101533.31
2022-08-26T20:09:34.024Z,101537.31
2022-08-26T20:12:05.115Z,101541.91
2022-08-26T20:14:33.639Z,101543.09
2022-08-26T20:17:02.684Z,101549.25
2022-08-26T20:19:48.777Z,101544.81
2022-08-26T20:22:17.450Z,101549.75
2022-08-26T20:24:46.215Z,101534.53
2022-08-26T20:27:15.470Z,101543.47
2022-08-26T20:29:43.088Z,101547.09
2022-08-26T20:32:11.999Z,101542.88
2022-08-26T20:34:40.049Z,101545.75
2022-08-26T20:37:08.475Z,101535.84
2022-08-26T20:39:36.335Z,101536.72
2022-08-26T20:42:06.667Z,101539.38
2022-08-26T20:44:54.411Z,101552.53
2022-08-26T20:47:23.166Z,101551.44
2022-08-26T20:49:52.576Z,101546.97
2022-08-26T20:52:20.827Z,101546.84
2022-08-26T20:54:48.211Z,101551.19
2022-08-26T20:57:15.776Z,101556.25
2022-08-26T20:59:43.538Z,101546.75
2022-08-26T21:02:11.019Z,101548.66
2022-08-26T21:04:38.530Z,101549.50
2022-08-26T21:07:06.068Z,101552.75
2022-08-26T21:09:33.519Z,101548.28
2022-08-26T21:12:00.855Z,101546.97
2022-08-26T21:14:28.869Z,101553.13
2022-08-26T21:16:57.258Z,101556.75
2022-08-26T21:19:24.630Z,101549.88
2022-08-26T21:21:52.073Z,101561.56
2022-08-26T21:24:19.640Z,101547.59
2022-08-26T21:26:48.027Z,101545.28
2022-08-26T21:29:15.540Z,101554.56
2022-08-26T21:31:46.628Z,101560.00
2022-08-26T21:34:18.441Z,101547.78
2022-08-26T21:36:49.831Z,101552.28
2022-08-26T21:39:19.642Z,101559.28
2022-08-26T21:41:47.560Z,101553.09
2022-08-26T21:44:17.747Z,101546.84
2022-08-26T21:46:46.951Z,101549.72
2022-08-26T21:49:17.013Z,101540.41
2022-08-26T21:51:48.395Z,101554.88
2022-08-26T21:54:17.405Z,101550.78
2022-08-26T21:56:47.394Z,101557.03
2022-08-26T21:59:19.305Z,101556.31
2022-08-26T22:01:47.571Z,101554.84
2022-08-26T22:04:16.153Z,101552.31
2022-08-26T22:06:49.558Z,101546.88
2022-08-26T22:09:25.290Z,101549.66
2022-08-26T22:11:56.539Z,101551.34
2022-08-26T22:14:30.361Z,101552.06
2022-08-26T22:16:59.768Z,101551.47
2022-08-26T22:19:27.499Z,101554.13
2022-08-26T22:21:56.772Z,101557.84
2022-08-26T22:24:27.427Z,101566.69
2022-08-26T22:26:56.114Z,101566.16
2022-08-26T22:29:25.164Z,101565.34
2022-08-26T22:31:52.937Z,101565.56
2022-08-26T22:34:21.223Z,101570.75
2022-08-26T22:36:50.830Z,101573.41
2022-08-26T22:39:23.761Z,101571.00
2022-08-26T22:41:53.841Z,101574.59
2022-08-26T22:44:22.429Z,101575.69
2022-08-26T22:46:54.165Z,101572.94
2022-08-26T22:49:23.296Z,101569.41
2022-08-26T22:51:51.927Z,101567.00
2022-08-26T22:54:19.323Z,101561.06
2022-08-26T22:56:46.719Z,101559.75
2022-08-26T22:59:15.941Z,101555.25
2022-08-26T23:01:44.683Z,101566.19
2022-08-26T23:04:12.325Z,101570.16
2022-08-26T23:06:43.432Z,101566.03
2022-08-26T23:09:18.252Z,101555.25
2022-08-26T23:11:48.635Z,101558.59
2022-08-26T23:14:18.854Z,101557.31
2022-08-26T23:16:47.893Z,101559.56
2022-08-26T23:19:19.722Z,101568.81
2022-08-26T23:21:48.421Z,101567.25
2022-08-26T23:24:17.358Z,101566.69
2022-08-26T23:26:46.408Z,101558.25
2022-08-26T23:29:15.978Z,101557.09
2022-08-26T23:31:44.211Z,101555.75
2022-08-26T23:34:30.289Z,101549.81
2022-08-26T23:36:59.459Z,101549.19
2022-08-26T23:39:29.422Z,101552.69
2022-08-26T23:41:57.994Z,101548.47
2022-08-26T23:44:26.528Z,101553.00
2022-08-26T23:46:55.065Z,101552.50
2022-08-26T23:49:23.036Z,101550.38
2022-08-26T23:52:08.764Z,101556.94
2022-08-26T23:54:36.581Z,101543.41
2022-08-26T23:57:04.330Z,101548.19
2022-08-26T23:59:32.208Z,101544.06
